sensor_id;sensor_type;location;lat;lon;timestamp;P1;durP1;ratioP1;P2;durP2;ratioP2
18793;SDS011;29610;49.022;12.114;2024-01-15T00:01:32;44.47;;;16.63;;
18793;SDS011;29610;49.022;12.114;2024-01-15T00:04:01;61.05;;;19.00;;
18793;SDS011;29610;49.022;12.114;2024-01-15T00:06:29;41.00;;;16.50;;
18793;SDS011;29610;49.022;12.114;2024-01-15T00:08:59;44.47;;;18.25;;
18793;SDS011;29610;49.022;12.114;2024-01-15T00:11:28;45.88;;;17.98;;
18793;SDS011;29610;49.022;12.114;2024-01-15T00:13:57;47.75;;;17.02;;
18793;SDS011;29610;49.022;12.114;2024-01-15T00:16:26;44.55;;;21.02;;
18793;SDS011;29610;49.022;12.114;2024-01-15T00:18:54;48.15;;;18.35;;
18793;SDS011;29610;49.022;12.114;2024-01-15T00:21:22;39.47;;;17.55;;
18793;SDS011;29610;49.022;12.114;2024-01-15T00:23:51;44.55;;;17.00;;
18793;SDS011;29610;49.022;12.114;2024-01-15T00:26:19;46.60;;;18.23;;
18793;SDS011;29610;49.022;12.114;2024-01-15T00:28:47;51.45;;;18.33;;
18793;SDS011;29610;49.022;12.114;2024-01-15T00:31:18;44.40;;;18.55;;
18793;SDS011;29610;49.022;12.114;2024-01-15T00:33:47;49.00;;;17.90;;
18793;SDS011;29610;49.022;12.114;2024-01-15T00:36:15;50.75;;;18.95;;
18793;SDS011;29610;49.022;12.114;2024-01-15T00:38:44;41.88;;;16.60;;
18793;SDS011;29610;49.022;12.114;2024-01-15T00:41:13;38.67;;;17.40;;
18793;SDS011;29610;49.022;12.114;2024-01-15T00:43:42;50.38;;;19.85;;
18793;SDS011;29610;49.022;12.114;2024-01-15T00:46:10;37.50;;;15.95;;
18793;SDS011;29610;49.022;12.114;2024-01-15T00:48:39;57.30;;;19.35;;
18793;SDS011;29610;49.022;12.114;2024-01-15T00:51:07;49.60;;;16.95;;
18793;SDS011;29610;49.022;12.114;2024-01-15T00:53:36;59.50;;;17.33;;
18793;SDS011;29610;49.022;12.114;2024-01-15T00:56:04;41.15;;;17.27;;
18793;SDS011;29610;49.022;12.114;2024-01-15T00:58:32;41.03;;;16.10;;
18793;SDS011;29610;49.022;12.114;2024-01-15T01:01:01;35.55;;;14.68;;
18793;SDS011;29610;49.022;12.114;2024-01-15T01:03:29;41.13;;;17.55;;
18793;SDS011;29610;49.022;12.114;2024-01-15T01:05:59;41.15;;;16.65;;
18793;SDS011;29610;49.022;12.114;2024-01-15T01:08:27;41.97;;;16.60;;
18793;SDS011;29610;49.022;12.114;2024-01-15T01:10:55;50.20;;;17.45;;
18793;SDS011;29610;49.022;12.114;2024-01-15T01:13:24;48.50;;;15.90;;
18793;SDS011;29610;49.022;12.114;2024-01-15T01:15:52;36.25;;;13.50;;
18793;SDS011;29610;49.022;12.114;2024-01-15T01:18:20;38.13;;;15.90;;
18793;SDS011;29610;49.022;12.114;2024-01-15T01:20:49;30.95;;;15.18;;
18793;SDS011;29610;49.022;12.114;2024-01-15T01:23:18;37.60;;;14.82;;
18793;SDS011;29610;49.022;12.114;2024-01-15T01:25:47;36.10;;;15.15;;
18793;SDS011;29610;49.022;12.114;2024-01-15T01:28:15;54.13;;;15.88;;
18793;SDS011;29610;49.022;12.114;2024-01-15T01:30:43;35.22;;;13.18;;
18793;SDS011;29610;49.022;12.114;2024-01-15T01:33:11;45.00;;;14.55;;
18793;SDS011;29610;49.022;12.114;2024-01-15T01:35:40;35.72;;;14.55;;
18793;SDS011;29610;49.022;12.114;2024-01-15T01:38:09;45.83;;;15.10;;
18793;SDS011;29610;49.022;12.114;2024-01-15T01:40:39;39.70;;;13.93;;
18793;SDS011;29610;49.022;12.114;2024-01-15T01:43:08;35.38;;;13.30;;
18793;SDS011;29610;49.022;12.114;2024-01-15T01:45:37;32.08;;;13.00;;
18793;SDS011;29610;49.022;12.114;2024-01-15T01:48:06;30.98;;;12.95;;
18793;SDS011;29610;49.022;12.114;2024-01-15T01:50:35;31.40;;;12.88;;
18793;SDS011;29610;49.022;12.114;2024-01-15T01:53:04;32.58;;;12.48;;
18793;SDS011;29610;49.022;12.114;2024-01-15T01:55:32;35.70;;;12.77;;
18793;SDS011;29610;49.022;12.114;2024-01-15T01:58:03;29.27;;;13.32;;
18793;SDS011;29610;49.022;12.114;2024-01-15T02:00:33;31.83;;;12.75;;
18793;SDS011;29610;49.022;12.114;2024-01-15T02:03:04;30.60;;;12.85;;
18793;SDS011;29610;49.022;12.114;2024-01-15T02:05:32;36.97;;;13.05;;
18793;SDS011;29610;49.022;12.114;2024-01-15T02:08:03;32.75;;;12.65;;
18793;SDS011;29610;49.022;12.114;2024-01-15T02:10:32;33.35;;;12.45;;
18793;SDS011;29610;49.022;12.114;2024-01-15T02:13:00;34.00;;;12.30;;
18793;SDS011;29610;49.022;12.114;2024-01-15T02:15:29;32.15;;;10.98;;
18793;SDS011;29610;49.022;12.114;2024-01-15T02:17:58;34.15;;;11.70;;
18793;SDS011;29610;49.022;12.114;2024-01-15T02:20:28;39.53;;;13.23;;
18793;SDS011;29610;49.022;12.114;2024-01-15T02:23:09;32.50;;;11.82;;
18793;SDS011;29610;49.022;12.114;2024-01-15T02:25:39;36.78;;;12.77;;
18793;SDS011;29610;49.022;12.114;2024-01-15T02:28:10;38.55;;;11.25;;
18793;SDS011;29610;49.022;12.114;2024-01-15T02:30:41;33.30;;;11.75;;
18793;SDS011;29610;49.022;12.114;2024-01-15T02:33:11;28.83;;;11.73;;
18793;SDS011;29610;49.022;12.114;2024-01-15T02:35:40;33.78;;;12.40;;
18793;SDS011;29610;49.022;12.114;2024-01-15T02:38:10;28.33;;;10.18;;
18793;SDS011;29610;49.022;12.114;2024-01-15T02:40:38;34.05;;;11.25;;
18793;SDS011;29610;49.022;12.114;2024-01-15T02:43:06;31.33;;;12.05;;
18793;SDS011;29610;49.022;12.114;2024-01-15T02:45:35;30.27;;;11.38;;
18793;SDS011;29610;49.022;12.114;2024-01-15T02:48:03;32.35;;;11.10;;
18793;SDS011;29610;49.022;12.114;2024-01-15T02:50:32;35.00;;;11.77;;
18793;SDS011;29610;49.022;12.114;2024-01-15T02:53:00;30.20;;;11.60;;
18793;SDS011;29610;49.022;12.114;2024-01-15T02:55:30;28.48;;;10.48;;
18793;SDS011;29610;49.022;12.114;2024-01-15T02:57:59;25.10;;;10.00;;
18793;SDS011;29610;49.022;12.114;2024-01-15T03:00:27;27.55;;;11.57;;
18793;SDS011;29610;49.022;12.114;2024-01-15T03:02:56;35.90;;;12.13;;
18793;SDS011;29610;49.022;12.114;2024-01-15T03:05:24;29.48;;;12.30;;
18793;SDS011;29610;49.022;12.114;2024-01-15T03:07:52;33.15;;;11.55;;
18793;SDS011;29610;49.022;12.114;2024-01-15T03:10:20;27.85;;;9.75;;
18793;SDS011;29610;49.022;12.114;2024-01-15T03:12:50;22.40;;;9.32;;
18793;SDS011;29610;49.022;12.114;2024-01-15T03:15:18;27.23;;;11.15;;
18793;SDS011;29610;49.022;12.114;2024-01-15T03:17:47;22.58;;;10.05;;
18793;SDS011;29610;49.022;12.114;2024-01-15T03:20:15;21.92;;;10.05;;
18793;SDS011;29610;49.022;12.114;2024-01-15T03:22:43;25.88;;;10.68;;
18793;SDS011;29610;49.022;12.114;2024-01-15T03:25:11;22.40;;;8.95;;
18793;SDS011;29610;49.022;12.114;2024-01-15T03:27:40;20.70;;;9.50;;
18793;SDS011;29610;49.022;12.114;2024-01-15T03:30:10;21.92;;;9.13;;
18793;SDS011;29610;49.022;12.114;2024-01-15T03:32:40;23.05;;;7.40;;
18793;SDS011;29610;49.022;12.114;2024-01-15T03:35:08;25.60;;;9.10;;
18793;SDS011;29610;49.022;12.114;2024-01-15T03:37:36;22.23;;;8.70;;
18793;SDS011;29610;49.022;12.114;2024-01-15T03:40:05;20.02;;;8.85;;
18793;SDS011;29610;49.022;12.114;2024-01-15T03:42:35;24.92;;;11.02;;
18793;SDS011;29610;49.022;12.114;2024-01-15T03:45:04;21.88;;;8.43;;
18793;SDS011;29610;49.022;12.114;2024-01-15T03:47:34;24.73;;;8.68;;
18793;SDS011;29610;49.022;12.114;2024-01-15T03:50:02;21.38;;;9.13;;
18793;SDS011;29610;49.022;12.114;2024-01-15T03:52:32;23.65;;;8.65;;
18793;SDS011;29610;49.022;12.114;2024-01-15T03:55:00;19.10;;;8.57;;
18793;SDS011;29610;49.022;12.114;2024-01-15T03:57:28;26.38;;;9.55;;
18793;SDS011;29610;49.022;12.114;2024-01-15T03:59:57;19.63;;;8.82;;
18793;SDS011;29610;49.022;12.114;2024-01-15T04:02:25;22.90;;;9.30;;
18793;SDS011;29610;49.022;12.114;2024-01-15T04:04:54;17.45;;;7.70;;
18793;SDS011;29610;49.022;12.114;2024-01-15T04:07:23;18.02;;;7.85;;
18793;SDS011;29610;49.022;12.114;2024-01-15T04:09:51;21.63;;;9.27;;
18793;SDS011;29610;49.022;12.114;2024-01-15T04:12:19;20.15;;;7.85;;
18793;SDS011;29610;49.022;12.114;2024-01-15T04:14:47;20.00;;;8.43;;
18793;SDS011;29610;49.022;12.114;2024-01-15T04:17:15;19.42;;;7.80;;
18793;SDS011;29610;49.022;12.114;2024-01-15T04:19:44;21.33;;;8.02;;
18793;SDS011;29610;49.022;12.114;2024-01-15T04:22:15;19.13;;;8.15;;
18793;SDS011;29610;49.022;12.114;2024-01-15T04:24:44;17.02;;;7.07;;
18793;SDS011;29610;49.022;12.114;2024-01-15T04:27:12;16.85;;;6.65;;
18793;SDS011;29610;49.022;12.114;2024-01-15T04:29:40;18.30;;;8.20;;
18793;SDS011;29610;49.022;12.114;2024-01-15T04:32:11;15.55;;;7.68;;
18793;SDS011;29610;49.022;12.114;2024-01-15T04:34:39;19.92;;;8.05;;
18793;SDS011;29610;49.022;12.114;2024-01-15T04:37:07;20.40;;;8.02;;
18793;SDS011;29610;49.022;12.114;2024-01-15T04:39:37;18.25;;;7.32;;
18793;SDS011;29610;49.022;12.114;2024-01-15T04:42:05;21.40;;;7.85;;
18793;SDS011;29610;49.022;12.114;2024-01-15T04:44:34;15.90;;;7.15;;
18793;SDS011;29610;49.022;12.114;2024-01-15T04:47:02;17.50;;;8.07;;
18793;SDS011;29610;49.022;12.114;2024-01-15T04:49:31;23.45;;;7.63;;
18793;SDS011;29610;49.022;12.114;2024-01-15T04:51:59;19.42;;;7.20;;
18793;SDS011;29610;49.022;12.114;2024-01-15T04:54:28;14.77;;;6.88;;
18793;SDS011;29610;49.022;12.114;2024-01-15T04:56:58;16.63;;;7.68;;
18793;SDS011;29610;49.022;12.114;2024-01-15T04:59:26;16.27;;;6.93;;
18793;SDS011;29610;49.022;12.114;2024-01-15T05:01:54;17.88;;;8.07;;
18793;SDS011;29610;49.022;12.114;2024-01-15T05:04:24;19.55;;;9.05;;
18793;SDS011;29610;49.022;12.114;2024-01-15T05:06:52;19.50;;;7.85;;
18793;SDS011;29610;49.022;12.114;2024-01-15T05:09:21;21.73;;;8.20;;
18793;SDS011;29610;49.022;12.114;2024-01-15T05:11:49;23.55;;;9.85;;
18793;SDS011;29610;49.022;12.114;2024-01-15T05:14:19;18.75;;;6.78;;
18793;SDS011;29610;49.022;12.114;2024-01-15T05:16:47;18.92;;;7.35;;
18793;SDS011;29610;49.022;12.114;2024-01-15T05:19:17;16.23;;;6.70;;
18793;SDS011;29610;49.022;12.114;2024-01-15T05:21:46;20.63;;;10.13;;
18793;SDS011;29610;49.022;12.114;2024-01-15T05:24:15;15.77;;;8.25;;
18793;SDS011;29610;49.022;12.114;2024-01-15T05:26:43;18.92;;;7.20;;
18793;SDS011;29610;49.022;12.114;2024-01-15T05:29:11;17.05;;;7.35;;
18793;SDS011;29610;49.022;12.114;2024-01-15T05:31:41;18.80;;;8.63;;
18793;SDS011;29610;49.022;12.114;2024-01-15T05:34:09;18.33;;;8.82;;
18793;SDS011;29610;49.022;12.114;2024-01-15T05:36:38;18.80;;;8.60;;
18793;SDS011;29610;49.022;12.114;2024-01-15T05:39:06;16.38;;;6.88;;
18793;SDS011;29610;49.022;12.114;2024-01-15T05:41:35;18.48;;;7.30;;
18793;SDS011;29610;49.022;12.114;2024-01-15T05:44:03;18.00;;;7.70;;
18793;SDS011;29610;49.022;12.114;2024-01-15T05:46:32;18.60;;;7.55;;
18793;SDS011;29610;49.022;12.114;2024-01-15T05:49:01;21.08;;;8.45;;
18793;SDS011;29610;49.022;12.114;2024-01-15T05:51:30;18.73;;;7.80;;
18793;SDS011;29610;49.022;12.114;2024-01-15T05:53:59;15.05;;;8.50;;
18793;SDS011;29610;49.022;12.114;2024-01-15T05:56:27;16.08;;;7.22;;
18793;SDS011;29610;49.022;12.114;2024-01-15T05:58:55;13.55;;;6.47;;
18793;SDS011;29610;49.022;12.114;2024-01-15T06:01:24;17.73;;;7.22;;
18793;SDS011;29610;49.022;12.114;2024-01-15T06:03:52;22.17;;;8.32;;
18793;SDS011;29610;49.022;12.114;2024-01-15T06:06:22;18.75;;;7.55;;
18793;SDS011;29610;49.022;12.114;2024-01-15T06:08:50;16.00;;;7.45;;
18793;SDS011;29610;49.022;12.114;2024-01-15T06:11:18;15.43;;;6.85;;
18793;SDS011;29610;49.022;12.114;2024-01-15T06:13:46;14.95;;;5.95;;
18793;SDS011;29610;49.022;12.114;2024-01-15T06:16:15;18.02;;;6.78;;
18793;SDS011;29610;49.022;12.114;2024-01-15T06:18:45;22.98;;;7.63;;
18793;SDS011;29610;49.022;12.114;2024-01-15T06:21:14;16.00;;;6.15;;
18793;SDS011;29610;49.022;12.114;2024-01-15T06:23:44;22.60;;;7.32;;
18793;SDS011;29610;49.022;12.114;2024-01-15T06:26:13;16.15;;;6.85;;
18793;SDS011;29610;49.022;12.114;2024-01-15T06:28:41;19.15;;;6.80;;
18793;SDS011;29610;49.022;12.114;2024-01-15T06:31:09;21.20;;;7.78;;
18793;SDS011;29610;49.022;12.114;2024-01-15T06:33:38;16.60;;;7.10;;
18793;SDS011;29610;49.022;12.114;2024-01-15T06:36:07;17.88;;;6.68;;
18793;SDS011;29610;49.022;12.114;2024-01-15T06:38:35;17.67;;;6.88;;
18793;SDS011;29610;49.022;12.114;2024-01-15T06:41:05;14.18;;;6.43;;
18793;SDS011;29610;49.022;12.114;2024-01-15T06:43:33;17.92;;;6.57;;
18793;SDS011;29610;49.022;12.114;2024-01-15T06:46:02;11.52;;;5.60;;
18793;SDS011;29610;49.022;12.114;2024-01-15T06:48:34;13.00;;;5.43;;
18793;SDS011;29610;49.022;12.114;2024-01-15T06:51:02;20.43;;;6.83;;
18793;SDS011;29610;49.022;12.114;2024-01-15T06:53:32;15.13;;;6.20;;
18793;SDS011;29610;49.022;12.114;2024-01-15T06:56:00;16.48;;;6.88;;
18793;SDS011;29610;49.022;12.114;2024-01-15T06:58:32;13.82;;;6.20;;
18793;SDS011;29610;49.022;12.114;2024-01-15T07:01:00;11.10;;;6.05;;
18793;SDS011;29610;49.022;12.114;2024-01-15T07:03:29;13.80;;;6.28;;
18793;SDS011;29610;49.022;12.114;2024-01-15T07:05:58;13.55;;;6.70;;
18793;SDS011;29610;49.022;12.114;2024-01-15T07:08:26;14.93;;;7.00;;
18793;SDS011;29610;49.022;12.114;2024-01-15T07:10:54;17.92;;;6.90;;
18793;SDS011;29610;49.022;12.114;2024-01-15T07:13:22;13.18;;;6.22;;
18793;SDS011;29610;49.022;12.114;2024-01-15T07:15:52;13.20;;;5.93;;
18793;SDS011;29610;49.022;12.114;2024-01-15T07:18:20;13.23;;;6.15;;
18793;SDS011;29610;49.022;12.114;2024-01-15T07:20:50;13.93;;;6.30;;
18793;SDS011;29610;49.022;12.114;2024-01-15T07:23:18;12.80;;;5.70;;
18793;SDS011;29610;49.022;12.114;2024-01-15T07:25:46;14.00;;;5.50;;
18793;SDS011;29610;49.022;12.114;2024-01-15T07:28:14;16.97;;;6.33;;
18793;SDS011;29610;49.022;12.114;2024-01-15T07:30:43;11.50;;;5.23;;
18793;SDS011;29610;49.022;12.114;2024-01-15T07:33:13;11.85;;;5.68;;
18793;SDS011;29610;49.022;12.114;2024-01-15T07:35:42;12.95;;;5.15;;
18793;SDS011;29610;49.022;12.114;2024-01-15T07:38:10;11.63;;;5.40;;
18793;SDS011;29610;49.022;12.114;2024-01-15T07:40:38;11.37;;;5.40;;
18793;SDS011;29610;49.022;12.114;2024-01-15T07:43:07;15.67;;;6.20;;
18793;SDS011;29610;49.022;12.114;2024-01-15T07:45:35;16.30;;;5.30;;
18793;SDS011;29610;49.022;12.114;2024-01-15T07:48:04;13.47;;;6.40;;
18793;SDS011;29610;49.022;12.114;2024-01-15T07:50:34;13.13;;;5.10;;
18793;SDS011;29610;49.022;12.114;2024-01-15T07:53:04;12.82;;;5.30;;
18793;SDS011;29610;49.022;12.114;2024-01-15T07:55:33;12.07;;;5.10;;
18793;SDS011;29610;49.022;12.114;2024-01-15T07:58:01;10.30;;;5.47;;
18793;SDS011;29610;49.022;12.114;2024-01-15T08:00:42;10.90;;;4.80;;
18793;SDS011;29610;49.022;12.114;2024-01-15T08:03:11;13.43;;;5.45;;
18793;SDS011;29610;49.022;12.114;2024-01-15T08:05:41;12.23;;;5.43;;
18793;SDS011;29610;49.022;12.114;2024-01-15T08:08:09;11.73;;;6.10;;
18793;SDS011;29610;49.022;12.114;2024-01-15T08:10:37;10.65;;;4.38;;
18793;SDS011;29610;49.022;12.114;2024-01-15T08:13:06;9.27;;;4.20;;
18793;SDS011;29610;49.022;12.114;2024-01-15T08:15:35;12.53;;;5.10;;
18793;SDS011;29610;49.022;12.114;2024-01-15T08:18:04;11.77;;;5.50;;
18793;SDS011;29610;49.022;12.114;2024-01-15T08:20:32;10.47;;;4.90;;
18793;SDS011;29610;49.022;12.114;2024-01-15T08:23:05;12.10;;;4.80;;
18793;SDS011;29610;49.022;12.114;2024-01-15T08:25:33;10.10;;;4.30;;
18793;SDS011;29610;49.022;12.114;2024-01-15T08:28:01;13.50;;;4.80;;
18793;SDS011;29610;49.022;12.114;2024-01-15T08:30:30;10.93;;;4.67;;
18793;SDS011;29610;49.022;12.114;2024-01-15T08:32:58;10.70;;;4.10;;
18793;SDS011;29610;49.022;12.114;2024-01-15T08:35:37;11.17;;;4.40;;
18793;SDS011;29610;49.022;12.114;2024-01-15T08:38:06;10.40;;;4.40;;
18793;SDS011;29610;49.022;12.114;2024-01-15T08:40:35;9.93;;;5.20;;
18793;SDS011;29610;49.022;12.114;2024-01-15T08:43:03;11.07;;;3.77;;
18793;SDS011;29610;49.022;12.114;2024-01-15T08:45:33;10.60;;;4.27;;
18793;SDS011;29610;49.022;12.114;2024-01-15T08:48:01;9.23;;;4.40;;
18793;SDS011;29610;49.022;12.114;2024-01-15T08:50:30;10.70;;;4.67;;
18793;SDS011;29610;49.022;12.114;2024-01-15T08:52:59;9.63;;;3.80;;
18793;SDS011;29610;49.022;12.114;2024-01-15T08:55:28;8.43;;;3.83;;
18793;SDS011;29610;49.022;12.114;2024-01-15T08:57:57;10.30;;;3.80;;
18793;SDS011;29610;49.022;12.114;2024-01-15T09:00:25;9.10;;;4.07;;
18793;SDS011;29610;49.022;12.114;2024-01-15T09:02:54;9.80;;;4.10;;
18793;SDS011;29610;49.022;12.114;2024-01-15T09:05:22;8.90;;;3.70;;
18793;SDS011;29610;49.022;12.114;2024-01-15T09:07:51;10.27;;;4.90;;
18793;SDS011;29610;49.022;12.114;2024-01-15T09:10:19;7.93;;;3.63;;
18793;SDS011;29610;49.022;12.114;2024-01-15T09:12:49;8.43;;;3.63;;
18793;SDS011;29610;49.022;12.114;2024-01-15T09:15:18;8.67;;;4.30;;
18793;SDS011;29610;49.022;12.114;2024-01-15T09:17:46;10.33;;;4.33;;
18793;SDS011;29610;49.022;12.114;2024-01-15T09:20:15;8.20;;;3.60;;
18793;SDS011;29610;49.022;12.114;2024-01-15T09:22:43;9.87;;;4.30;;
18793;SDS011;29610;49.022;12.114;2024-01-15T09:25:12;9.43;;;4.20;;
18793;SDS011;29610;49.022;12.114;2024-01-15T09:27:40;8.47;;;3.57;;
18793;SDS011;29610;49.022;12.114;2024-01-15T09:30:10;10.27;;;4.00;;
18793;SDS011;29610;49.022;12.114;2024-01-15T09:32:40;9.00;;;3.83;;
18793;SDS011;29610;49.022;12.114;2024-01-15T09:35:08;8.53;;;3.63;;
18793;SDS011;29610;49.022;12.114;2024-01-15T09:37:37;11.53;;;4.37;;
18793;SDS011;29610;49.022;12.114;2024-01-15T09:40:14;7.63;;;3.80;;
18793;SDS011;29610;49.022;12.114;2024-01-15T09:42:43;11.60;;;3.33;;
18793;SDS011;29610;49.022;12.114;2024-01-15T09:45:14;10.07;;;4.40;;
18793;SDS011;29610;49.022;12.114;2024-01-15T09:47:43;13.57;;;4.47;;
18793;SDS011;29610;49.022;12.114;2024-01-15T09:50:12;11.00;;;4.40;;
18793;SDS011;29610;49.022;12.114;2024-01-15T09:52:43;10.23;;;4.17;;
18793;SDS011;29610;49.022;12.114;2024-01-15T09:55:13;8.17;;;3.97;;
18793;SDS011;29610;49.022;12.114;2024-01-15T09:57:43;9.10;;;4.23;;
18793;SDS011;29610;49.022;12.114;2024-01-15T10:00:14;10.77;;;4.77;;
18793;SDS011;29610;49.022;12.114;2024-01-15T10:02:46;9.03;;;3.93;;
18793;SDS011;29610;49.022;12.114;2024-01-15T10:05:16;11.67;;;4.50;;
18793;SDS011;29610;49.022;12.114;2024-01-15T10:07:44;8.87;;;4.20;;
18793;SDS011;29610;49.022;12.114;2024-01-15T10:10:16;12.60;;;5.00;;
18793;SDS011;29610;49.022;12.114;2024-01-15T10:12:44;11.63;;;4.67;;
18793;SDS011;29610;49.022;12.114;2024-01-15T10:15:12;9.50;;;4.23;;
18793;SDS011;29610;49.022;12.114;2024-01-15T10:17:43;9.30;;;4.03;;
18793;SDS011;29610;49.022;12.114;2024-01-15T10:20:12;10.13;;;4.57;;
18793;SDS011;29610;49.022;12.114;2024-01-15T10:22:41;9.37;;;4.77;;
18793;SDS011;29610;49.022;12.114;2024-01-15T10:25:10;9.57;;;4.60;;
18793;SDS011;29610;49.022;12.114;2024-01-15T10:27:40;16.93;;;5.43;;
18793;SDS011;29610;49.022;12.114;2024-01-15T10:30:09;13.43;;;4.67;;
18793;SDS011;29610;49.022;12.114;2024-01-15T10:32:42;9.00;;;5.40;;
18793;SDS011;29610;49.022;12.114;2024-01-15T10:35:28;10.83;;;4.47;;
18793;SDS011;29610;49.022;12.114;2024-01-15T10:37:58;7.83;;;4.00;;
18793;SDS011;29610;49.022;12.114;2024-01-15T10:40:27;10.93;;;4.40;;
18793;SDS011;29610;49.022;12.114;2024-01-15T10:42:56;13.23;;;4.77;;
18793;SDS011;29610;49.022;12.114;2024-01-15T10:45:24;10.17;;;4.33;;
18793;SDS011;29610;49.022;12.114;2024-01-15T10:47:54;9.87;;;4.03;;
18793;SDS011;29610;49.022;12.114;2024-01-15T10:50:25;9.97;;;4.30;;
18793;SDS011;29610;49.022;12.114;2024-01-15T10:52:55;14.80;;;4.30;;
18793;SDS011;29610;49.022;12.114;2024-01-15T10:55:24;10.27;;;4.60;;
18793;SDS011;29610;49.022;12.114;2024-01-15T10:57:55;9.47;;;4.47;;
18793;SDS011;29610;49.022;12.114;2024-01-15T11:00:25;10.70;;;4.60;;
18793;SDS011;29610;49.022;12.114;2024-01-15T11:02:56;9.87;;;5.07;;
18793;SDS011;29610;49.022;12.114;2024-01-15T11:05:25;10.07;;;3.80;;
18793;SDS011;29610;49.022;12.114;2024-01-15T11:07:54;15.10;;;3.60;;
18793;SDS011;29610;49.022;12.114;2024-01-15T11:10:38;9.73;;;4.20;;
18793;SDS011;29610;49.022;12.114;2024-01-15T11:13:09;10.40;;;4.30;;
18793;SDS011;29610;49.022;12.114;2024-01-15T11:15:54;7.90;;;3.27;;
18793;SDS011;29610;49.022;12.114;2024-01-15T11:18:25;13.13;;;4.27;;
18793;SDS011;29610;49.022;12.114;2024-01-15T11:23:50;8.90;;;2.70;;
18793;SDS011;29610;49.022;12.114;2024-01-15T11:32:01;7.60;;;3.20;;
18793;SDS011;29610;49.022;12.114;2024-01-15T11:34:52;7.57;;;3.10;;
18793;SDS011;29610;49.022;12.114;2024-01-15T11:37:25;9.17;;;3.57;;
18793;SDS011;29610;49.022;12.114;2024-01-15T11:39:56;7.40;;;3.27;;
18793;SDS011;29610;49.022;12.114;2024-01-15T11:42:30;7.90;;;3.60;;
18793;SDS011;29610;49.022;12.114;2024-01-15T11:44:59;5.40;;;2.60;;
18793;SDS011;29610;49.022;12.114;2024-01-15T11:47:37;6.70;;;3.20;;
18793;SDS011;29610;49.022;12.114;2024-01-15T11:50:46;8.30;;;3.40;;
18793;SDS011;29610;49.022;12.114;2024-01-15T11:53:17;8.40;;;3.73;;
18793;SDS011;29610;49.022;12.114;2024-01-15T11:55:57;11.87;;;4.33;;
18793;SDS011;29610;49.022;12.114;2024-01-15T11:58:29;11.53;;;3.80;;
18793;SDS011;29610;49.022;12.114;2024-01-15T12:00:57;7.93;;;3.50;;
18793;SDS011;29610;49.022;12.114;2024-01-15T12:03:26;8.33;;;3.53;;
18793;SDS011;29610;49.022;12.114;2024-01-15T12:05:56;10.53;;;4.70;;
18793;SDS011;29610;49.022;12.114;2024-01-15T12:08:26;9.87;;;4.50;;
18793;SDS011;29610;49.022;12.114;2024-01-15T12:10:54;10.70;;;4.50;;
18793;SDS011;29610;49.022;12.114;2024-01-15T12:13:23;10.03;;;4.67;;
18793;SDS011;29610;49.022;12.114;2024-01-15T12:15:52;7.60;;;3.83;;
18793;SDS011;29610;49.022;12.114;2024-01-15T12:18:22;8.20;;;3.70;;
18793;SDS011;29610;49.022;12.114;2024-01-15T12:20:53;7.43;;;3.30;;
18793;SDS011;29610;49.022;12.114;2024-01-15T12:23:23;9.63;;;3.50;;
18793;SDS011;29610;49.022;12.114;2024-01-15T12:25:53;7.27;;;3.60;;
18793;SDS011;29610;49.022;12.114;2024-01-15T12:28:22;8.40;;;3.73;;
18793;SDS011;29610;49.022;12.114;2024-01-15T12:30:50;8.97;;;3.40;;
18793;SDS011;29610;49.022;12.114;2024-01-15T12:33:18;7.67;;;3.97;;
18793;SDS011;29610;49.022;12.114;2024-01-15T12:35:47;10.30;;;4.00;;
18793;SDS011;29610;49.022;12.114;2024-01-15T12:38:19;8.23;;;3.33;;
18793;SDS011;29610;49.022;12.114;2024-01-15T12:40:47;10.93;;;4.30;;
18793;SDS011;29610;49.022;12.114;2024-01-15T12:43:17;6.90;;;3.20;;
18793;SDS011;29610;49.022;12.114;2024-01-15T12:45:45;6.47;;;2.87;;
18793;SDS011;29610;49.022;12.114;2024-01-15T12:48:15;7.27;;;3.20;;
18793;SDS011;29610;49.022;12.114;2024-01-15T12:50:44;10.00;;;3.53;;
18793;SDS011;29610;49.022;12.114;2024-01-15T12:53:13;9.40;;;3.00;;
18793;SDS011;29610;49.022;12.114;2024-01-15T12:55:43;9.23;;;3.63;;
18793;SDS011;29610;49.022;12.114;2024-01-15T12:58:11;8.03;;;4.00;;
18793;SDS011;29610;49.022;12.114;2024-01-15T13:00:40;12.47;;;3.43;;
18793;SDS011;29610;49.022;12.114;2024-01-15T13:03:08;7.93;;;4.03;;
18793;SDS011;29610;49.022;12.114;2024-01-15T13:05:36;7.77;;;3.70;;
18793;SDS011;29610;49.022;12.114;2024-01-15T13:08:05;9.00;;;3.77;;
18793;SDS011;29610;49.022;12.114;2024-01-15T13:10:34;8.50;;;3.80;;
18793;SDS011;29610;49.022;12.114;2024-01-15T13:13:03;7.73;;;3.70;;
18793;SDS011;29610;49.022;12.114;2024-01-15T13:15:33;6.40;;;2.90;;
18793;SDS011;29610;49.022;12.114;2024-01-15T13:18:01;7.40;;;3.53;;
18793;SDS011;29610;49.022;12.114;2024-01-15T13:20:30;7.80;;;3.57;;
18793;SDS011;29610;49.022;12.114;2024-01-15T13:22:58;8.07;;;3.80;;
18793;SDS011;29610;49.022;12.114;2024-01-15T13:25:26;7.63;;;3.40;;
18793;SDS011;29610;49.022;12.114;2024-01-15T13:27:55;7.57;;;2.43;;
18793;SDS011;29610;49.022;12.114;2024-01-15T13:30:24;13.57;;;3.67;;
18793;SDS011;29610;49.022;12.114;2024-01-15T13:32:53;10.30;;;3.70;;
18793;SDS011;29610;49.022;12.114;2024-01-15T13:35:22;7.07;;;3.03;;
18793;SDS011;29610;49.022;12.114;2024-01-15T13:37:51;9.60;;;4.00;;
18793;SDS011;29610;49.022;12.114;2024-01-15T13:40:19;9.40;;;4.30;;
18793;SDS011;29610;49.022;12.114;2024-01-15T13:42:48;9.20;;;3.63;;
18793;SDS011;29610;49.022;12.114;2024-01-15T13:45:18;6.23;;;3.40;;
18793;SDS011;29610;49.022;12.114;2024-01-15T13:47:48;11.40;;;3.67;;
18793;SDS011;29610;49.022;12.114;2024-01-15T13:50:16;7.30;;;2.87;;
18793;SDS011;29610;49.022;12.114;2024-01-15T13:52:44;7.50;;;3.93;;
18793;SDS011;29610;49.022;12.114;2024-01-15T13:55:13;9.40;;;4.00;;
18793;SDS011;29610;49.022;12.114;2024-01-15T13:57:41;8.10;;;3.20;;
18793;SDS011;29610;49.022;12.114;2024-01-15T14:00:10;7.23;;;3.13;;
18793;SDS011;29610;49.022;12.114;2024-01-15T14:02:45;16.13;;;3.33;;
18793;SDS011;29610;49.022;12.114;2024-01-15T14:05:15;9.80;;;3.50;;
18793;SDS011;29610;49.022;12.114;2024-01-15T14:07:43;6.80;;;3.83;;
18793;SDS011;29610;49.022;12.114;2024-01-15T14:10:11;8.83;;;3.37;;
18793;SDS011;29610;49.022;12.114;2024-01-15T14:12:40;6.50;;;3.23;;
18793;SDS011;29610;49.022;12.114;2024-01-15T14:15:08;9.37;;;4.53;;
18793;SDS011;29610;49.022;12.114;2024-01-15T14:17:37;7.60;;;3.63;;
18793;SDS011;29610;49.022;12.114;2024-01-15T14:20:06;8.67;;;3.90;;
18793;SDS011;29610;49.022;12.114;2024-01-15T14:22:38;8.20;;;3.03;;
18793;SDS011;29610;49.022;12.114;2024-01-15T14:25:07;14.83;;;4.23;;
18793;SDS011;29610;49.022;12.114;2024-01-15T14:27:36;7.50;;;3.40;;
18793;SDS011;29610;49.022;12.114;2024-01-15T14:30:04;6.37;;;2.90;;
18793;SDS011;29610;49.022;12.114;2024-01-15T14:32:35;8.90;;;4.27;;
18793;SDS011;29610;49.022;12.114;2024-01-15T14:35:04;7.60;;;3.37;;
18793;SDS011;29610;49.022;12.114;2024-01-15T14:37:34;7.23;;;3.70;;
18793;SDS011;29610;49.022;12.114;2024-01-15T14:40:04;10.20;;;3.93;;
18793;SDS011;29610;49.022;12.114;2024-01-15T14:42:35;13.97;;;4.67;;